createdAt,value
2023-01-29T00:01:28.521Z,61.32
2023-01-29T00:06:32.378Z,62.27
2023-01-29T00:11:37.507Z,61.66
2023-01-29T00:16:41.174Z,60.30
2023-01-29T00:21:44.950Z,62.47
2023-01-29T00:26:50.140Z,62.62
2023-01-29T00:31:53.868Z,62.78
2023-01-29T00:37:05.002Z,62.30
2023-01-29T00:42:27.526Z,59.38
2023-01-29T00:47:34.482Z,61.52
2023-01-29T00:52:38.714Z,61.88
2023-01-29T00:57:43.669Z,60.75
2023-01-29T01:03:05.217Z,62.18
2023-01-29T01:08:29.328Z,60.25
2023-01-29T01:13:36.241Z,62.03
2023-01-29T01:18:40.032Z,62.15
2023-01-29T01:23:43.624Z,63.00
2023-01-29T01:28:48.626Z,60.98
2023-01-29T01:33:54.318Z,56.94
2023-01-29T01:39:00.758Z,60.43
2023-01-29T01:44:07.278Z,59.33
2023-01-29T01:49:15.886Z,61.50
2023-01-29T01:54:25.014Z,62.22
2023-01-29T01:59:29.924Z,63.12
2023-01-29T02:04:50.883Z,59.71
2023-01-29T02:09:59.985Z,60.71
2023-01-29T02:15:06.533Z,58.79
2023-01-29T02:20:18.107Z,63.43
2023-01-29T02:25:58.981Z,60.37
2023-01-29T02:31:13.884Z,59.46
2023-01-29T02:36:28.736Z,61.13
2023-01-29T02:41:39.151Z,62.86
2023-01-29T02:46:52.292Z,62.75
2023-01-29T02:52:03.427Z,63.18
2023-01-29T02:57:16.295Z,62.71
2023-01-29T03:02:27.634Z,62.77
2023-01-29T03:07:45.070Z,62.63
2023-01-29T03:13:20.409Z,62.28
2023-01-29T03:18:30.815Z,63.16
2023-01-29T03:23:55.493Z,63.22
2023-01-29T03:29:18.325Z,63.43
2023-01-29T03:34:34.874Z,63.23
2023-01-29T03:39:39.201Z,60.29
2023-01-29T03:44:59.112Z,58.51
2023-01-29T03:50:19.402Z,62.49
2023-01-29T03:55:32.006Z,60.68
2023-01-29T04:00:40.257Z,60.46
2023-01-29T04:05:50.356Z,62.83
2023-01-29T04:11:03.708Z,58.69
2023-01-29T04:16:37.422Z,61.20
2023-01-29T04:22:05.239Z,62.44
2023-01-29T04:27:24.196Z,63.39
2023-01-29T04:32:34.048Z,63.42
2023-01-29T04:37:45.179Z,62.61
2023-01-29T04:42:56.243Z,61.74
2023-01-29T04:48:08.471Z,62.67
2023-01-29T04:53:19.036Z,62.34
2023-01-29T04:58:29.896Z,60.33
2023-01-29T05:03:35.379Z,62.20
2023-01-29T05:08:41.601Z,57.34
2023-01-29T05:13:45.497Z,61.70
2023-01-29T05:18:49.452Z,62.73
2023-01-29T05:24:13.515Z,63.01
2023-01-29T05:29:18.090Z,60.03
2023-01-29T05:34:21.823Z,62.64
2023-01-29T05:39:26.912Z,63.07
2023-01-29T05:44:30.630Z,59.65
2023-01-29T05:49:34.203Z,62.70
2023-01-29T05:54:39.535Z,62.57
2023-01-29T05:59:43.132Z,62.42
2023-01-29T06:04:46.832Z,62.62
2023-01-29T06:09:51.836Z,62.80
2023-01-29T06:14:55.597Z,62.48
2023-01-29T06:19:59.399Z,62.70
2023-01-29T06:25:04.965Z,57.24
2023-01-29T06:30:09.854Z,55.76
2023-01-29T06:35:13.412Z,61.83
2023-01-29T06:40:18.811Z,60.50
2023-01-29T06:45:22.722Z,62.00
2023-01-29T06:50:26.333Z,62.39
2023-01-29T06:55:31.268Z,63.02
2023-01-29T07:00:35.197Z,63.37
2023-01-29T07:05:38.833Z,63.28
2023-01-29T07:10:43.738Z,63.38
2023-01-29T07:15:47.341Z,63.00
2023-01-29T07:20:50.964Z,62.82
2023-01-29T07:25:56.000Z,62.71
2023-01-29T07:30:59.990Z,62.91
2023-01-29T07:36:04.137Z,60.58
2023-01-29T07:41:10.348Z,61.99
2023-01-29T07:46:14.193Z,61.27
2023-01-29T07:51:18.637Z,62.58
2023-01-29T07:56:23.770Z,61.92
2023-01-29T08:01:27.536Z,62.38
2023-01-29T08:06:31.290Z,62.39
2023-01-29T08:11:36.301Z,61.92
2023-01-29T08:16:39.953Z,62.26
2023-01-29T08:21:44.619Z,60.75
2023-01-29T08:26:49.707Z,62.68
2023-01-29T08:31:53.398Z,58.04
2023-01-29T08:36:56.972Z,61.22
2023-01-29T08:42:01.903Z,62.54
2023-01-29T08:47:05.796Z,62.54
2023-01-29T08:52:09.475Z,57.97
2023-01-29T08:57:14.411Z,60.75
2023-01-29T09:02:18.016Z,61.21
2023-01-29T09:07:21.865Z,60.57
2023-01-29T09:12:27.271Z,61.85
2023-01-29T09:17:30.855Z,62.15
2023-01-29T09:22:34.726Z,61.54
2023-01-29T09:27:40.064Z,57.93
2023-01-29T09:32:53.331Z,60.34
2023-01-29T09:37:57.420Z,58.96
2023-01-29T09:43:05.657Z,61.06
2023-01-29T09:48:12.611Z,62.11
2023-01-29T09:53:21.181Z,61.24
2023-01-29T09:58:30.175Z,61.62
2023-01-29T10:03:51.797Z,61.71
2023-01-29T10:09:34.432Z,61.69
2023-01-29T10:14:50.610Z,61.34
2023-01-29T10:20:07.695Z,56.74
2023-01-29T10:25:15.245Z,57.83
2023-01-29T10:30:29.533Z,56.30
2023-01-29T10:35:36.875Z,58.05
2023-01-29T10:40:47.771Z,59.03
2023-01-29T10:46:01.935Z,56.67
2023-01-29T10:51:17.551Z,59.47
2023-01-29T10:56:38.569Z,58.96
2023-01-29T11:01:43.674Z,55.30
2023-01-29T11:06:47.767Z,58.16
2023-01-29T11:11:56.311Z,56.13
2023-01-29T11:17:01.475Z,55.42
2023-01-29T11:22:05.270Z,60.56
2023-01-29T11:27:16.709Z,61.37
2023-01-29T11:32:31.002Z,61.16
2023-01-29T11:37:38.054Z,55.96
2023-01-29T11:42:41.645Z,59.97
2023-01-29T11:47:50.389Z,57.78
2023-01-29T11:52:54.824Z,60.87
2023-01-29T11:58:04.705Z,59.21
2023-01-29T12:03:17.886Z,58.38
2023-01-29T12:08:22.932Z,55.95
2023-01-29T12:13:28.919Z,57.89
2023-01-29T12:18:38.366Z,60.38
2023-01-29T12:23:51.280Z,61.02
2023-01-29T12:29:07.233Z,61.17
2023-01-29T12:34:17.498Z,57.22
2023-01-29T12:39:22.150Z,59.02
2023-01-29T12:44:34.763Z,59.31
2023-01-29T12:49:42.533Z,57.08
2023-01-29T12:54:51.068Z,57.23
2023-01-29T12:59:59.989Z,59.97
2023-01-29T13:05:18.422Z,58.56
2023-01-29T13:10:27.035Z,57.78
2023-01-29T13:15:36.152Z,56.51
2023-01-29T13:20:42.210Z,54.63
2023-01-29T13:25:45.948Z,55.91
2023-01-29T13:31:12.312Z,57.23
2023-01-29T13:36:23.369Z,54.25
2023-01-29T13:41:35.133Z,54.99
2023-01-29T13:46:42.733Z,56.84
2023-01-29T13:51:47.755Z,56.91
2023-01-29T13:57:00.533Z,56.75
2023-01-29T14:02:20.867Z,58.96
2023-01-29T14:07:50.990Z,59.58
2023-01-29T14:12:55.661Z,56.34
2023-01-29T14:18:04.110Z,60.01
2023-01-29T14:23:21.631Z,56.70
2023-01-29T14:28:27.224Z,60.23
2023-01-29T14:33:36.327Z,58.54
2023-01-29T14:38:42.785Z,55.77
2023-01-29T14:43:46.498Z,57.48
2023-01-29T14:48:51.912Z,58.89
2023-01-29T14:54:02.576Z,57.98
2023-01-29T14:59:17.508Z,57.86
2023-01-29T15:04:27.309Z,59.38
2023-01-29T15:09:40.920Z,55.95
2023-01-29T15:14:52.212Z,55.78
2023-01-29T15:19:56.900Z,56.76
2023-01-29T15:25:07.817Z,56.88
2023-01-29T15:30:17.857Z,59.19
2023-01-29T15:35:29.786Z,59.75
2023-01-29T15:40:36.301Z,58.41
2023-01-29T15:45:42.438Z,57.13
2023-01-29T15:50:47.355Z,58.97
2023-01-29T15:55:53.878Z,59.79
2023-01-29T16:01:00.144Z,59.82
2023-01-29T16:06:07.064Z,61.31
2023-01-29T16:11:12.221Z,61.46
2023-01-29T16:16:23.035Z,59.61
2023-01-29T16:21:30.056Z,62.09
2023-01-29T16:26:38.249Z,59.16
2023-01-29T16:31:44.030Z,57.23
2023-01-29T16:36:49.522Z,59.92
2023-01-29T16:42:21.855Z,60.29
2023-01-29T16:47:30.092Z,62.54
2023-01-29T16:52:35.025Z,59.84
2023-01-29T16:57:41.544Z,61.57
2023-01-29T17:02:45.352Z,62.33
2023-01-29T17:07:49.157Z,62.32
2023-01-29T17:12:57.905Z,62.25
2023-01-29T17:18:01.656Z,62.29
2023-01-29T17:23:05.304Z,62.24
2023-01-29T17:28:13.998Z,62.22
2023-01-29T17:33:21.853Z,62.05
2023-01-29T17:38:26.958Z,62.12
2023-01-29T17:43:31.990Z,62.09
2023-01-29T17:48:35.618Z,61.97
2023-01-29T17:53:47.453Z,61.87
2023-01-29T17:58:52.547Z,61.96
2023-01-29T18:03:56.263Z,61.70
2023-01-29T18:08:59.884Z,61.93
2023-01-29T18:14:13.572Z,61.86
2023-01-29T18:19:22.147Z,61.88
2023-01-29T18:24:26.678Z,61.88
2023-01-29T18:29:31.773Z,62.10
2023-01-29T18:34:35.399Z,62.13
2023-01-29T18:39:39.027Z,61.94
2023-01-29T18:44:44.089Z,62.04
2023-01-29T18:49:47.744Z,61.83
2023-01-29T18:54:51.606Z,62.07
2023-01-29T18:59:56.776Z,61.89
2023-01-29T19:05:00.570Z,62.07
2023-01-29T19:10:06.835Z,61.85
2023-01-29T19:15:12.693Z,61.85
2023-01-29T19:20:16.580Z,61.89
2023-01-29T19:25:20.608Z,61.92
2023-01-29T19:30:25.832Z,62.03
2023-01-29T19:35:29.402Z,61.96
2023-01-29T19:40:33.070Z,61.70
2023-01-29T19:45:50.434Z,61.94
2023-01-29T19:50:56.708Z,61.39
2023-01-29T19:56:01.836Z,61.56
2023-01-29T20:01:08.799Z,61.83
2023-01-29T20:06:12.425Z,61.87
2023-01-29T20:11:16.963Z,62.07
2023-01-29T20:16:23.458Z,61.92
2023-01-29T20:21:27.201Z,61.65
2023-01-29T20:26:30.927Z,61.84
2023-01-29T20:31:36.417Z,61.90
2023-01-29T20:36:40.183Z,61.66
2023-01-29T20:41:43.767Z,61.66
2023-01-29T20:46:48.680Z,61.41
2023-01-29T20:51:52.284Z,61.68
2023-01-29T20:56:55.877Z,61.46
2023-01-29T21:02:01.570Z,61.59
2023-01-29T21:07:05.619Z,61.70
2023-01-29T21:12:09.306Z,61.54
2023-01-29T21:17:14.290Z,61.60
2023-01-29T21:22:17.899Z,61.03
2023-01-29T21:27:22.313Z,61.53
2023-01-29T21:32:29.067Z,61.68
2023-01-29T21:37:36.814Z,61.72
2023-01-29T21:42:58.045Z,61.72
2023-01-29T21:48:02.905Z,61.20
2023-01-29T21:53:06.677Z,60.80
2023-01-29T21:58:10.223Z,61.58
2023-01-29T22:03:15.228Z,61.73
2023-01-29T22:08:20.471Z,61.35
2023-01-29T22:13:24.349Z,60.65
2023-01-29T22:18:29.226Z,60.73
2023-01-29T22:23:33.598Z,61.69
2023-01-29T22:28:39.862Z,60.71
2023-01-29T22:33:45.585Z,61.26
2023-01-29T22:38:49.173Z,60.76
2023-01-29T22:43:52.609Z,61.36
2023-01-29T22:48:57.611Z,61.28
2023-01-29T22:54:01.570Z,60.78
2023-01-29T23:04:57.904Z,62.05
2023-01-29T23:10:01.607Z,61.54
2023-01-29T23:15:05.793Z,61.43
2023-01-29T23:20:12.761Z,61.23
2023-01-29T23:25:16.772Z,61.53
2023-01-29T23:30:20.526Z,61.31
2023-01-29T23:35:25.907Z,62.00
2023-01-29T23:40:29.458Z,61.60
2023-01-29T23:45:33.049Z,61.04
2023-01-29T23:50:38.205Z,61.58
2023-01-29T23:55:43.564Z,61.48
